Time;durP1;ratioP1;P1;durP2;ratioP2;P2;SDS_P1;SDS_P2;PMS_P1;PMS_P2;Temp;Humidity;BMP_temperature;BMP_pressure;BME280_temperature;BME280_humidity;BME280_pressure;Samples;Min_cycle;Max_cycle;Signal;HPM_P1;HPM_P2
2022/11/15 05:04:40;;;;;;;3.30;2.25;;;7.90;99.90;;;;;;5643015;23;20328;-69
2022/11/15 05:07:05;;;;;;;3.37;2.93;;;7.90;99.90;;;;;;4956982;29;20200;-72
2022/11/15 05:09:31;;;;;;;8.20;3.70;;;7.80;99.90;;;;;;4957112;29;20179;-71
2022/11/15 05:11:57;;;;;;;2.93;2.20;;;7.80;99.90;;;;;;4956984;29;20235;-70
2022/11/15 05:14:22;;;;;;;7.03;3.53;;;7.80;99.90;;;;;;4956380;29;20213;-70
2022/11/15 05:16:48;;;;;;;3.53;2.60;;;7.80;99.90;;;;;;4956823;29;20271;-68
2022/11/15 05:19:13;;;;;;;2.30;2.10;;;7.80;99.90;;;;;;4956948;29;20505;-70
2022/11/15 05:21:39;;;;;;;2.57;1.90;;;7.80;99.90;;;;;;4956855;29;20183;-69
2022/11/15 05:24:05;;;;;;;3.33;3.03;;;7.80;99.90;;;;;;4956355;29;20197;-69
2022/11/15 05:26:31;;;;;;;2.45;2.25;;;7.90;99.90;;;;;;4956755;29;20173;-70
2022/11/15 05:28:58;;;;;;;2.45;2.30;;;7.90;99.90;;;;;;4955841;28;20330;-69
2022/11/15 05:31:25;;;;;;;2.17;2.00;;;7.90;99.90;;;;;;4956605;29;20179;-70
2022/11/15 05:33:52;;;;;;;3.28;2.97;;;7.90;99.90;;;;;;4954975;29;20695;-69
2022/11/15 05:36:20;;;;;;;3.15;2.95;;;7.90;99.90;;;;;;4956563;29;20248;-70
2022/11/15 05:38:48;;;;;;;2.83;2.55;;;7.90;99.90;;;;;;4956177;29;20208;-69
2022/11/15 05:41:15;;;;;;;3.08;2.30;;;7.90;99.90;;;;;;4956111;29;20172;-69
2022/11/15 05:43:42;;;;;;;2.30;2.10;;;7.80;99.90;;;;;;4954909;29;20201;-70
2022/11/15 05:46:07;;;;;;;2.78;1.95;;;7.80;99.90;;;;;;4955914;29;20518;-70
2022/11/15 05:48:35;;;;;;;2.70;2.50;;;7.70;99.90;;;;;;4956046;29;20180;-70
2022/11/15 05:51:03;;;;;;;2.70;2.17;;;7.70;99.90;;;;;;4956247;29;20215;-68
2022/11/15 05:53:30;;;;;;;1.90;1.80;;;7.70;99.90;;;;;;4954371;29;20267;-70
2022/11/15 05:55:56;;;;;;;3.17;2.58;;;7.60;99.90;;;;;;4938663;29;20636;-71
2022/11/15 05:58:21;;;;;;;2.30;2.20;;;7.60;99.90;;;;;;4956004;29;20187;-69
2022/11/15 06:00:48;;;;;;;3.10;2.73;;;7.60;99.90;;;;;;4955193;29;20231;-71
2022/11/15 06:03:14;;;;;;;3.78;3.17;;;7.60;99.90;;;;;;4955496;29;20421;-71
2022/11/15 06:05:40;;;;;;;3.63;3.33;;;7.60;99.90;;;;;;4955787;29;20193;-72
2022/11/15 06:08:05;;;;;;;2.60;2.40;;;7.60;99.90;;;;;;4955470;29;20430;-72
2022/11/15 06:10:32;;;;;;;3.10;2.80;;;7.50;99.90;;;;;;4955645;29;20480;-72
2022/11/15 06:13:02;;;;;;;3.53;3.22;;;7.60;99.90;;;;;;4955709;29;20415;-71
2022/11/15 06:15:28;;;;;;;2.90;2.60;;;7.60;99.90;;;;;;4958895;28;20208;-72
2022/11/15 06:17:57;;;;;;;3.93;2.60;;;7.60;99.90;;;;;;4955190;29;20180;-71
2022/11/15 06:20:24;;;;;;;3.17;2.97;;;7.60;99.90;;;;;;4938241;29;20172;-73
2022/11/15 06:22:49;;;;;;;2.90;2.70;;;7.70;99.90;;;;;;4949772;29;20177;-72
2022/11/15 06:25:15;;;;;;;3.07;2.73;;;7.70;99.90;;;;;;4954844;29;20576;-71
2022/11/15 06:27:42;;;;;;;4.55;3.15;;;7.70;99.90;;;;;;4954567;29;20290;-70
2022/11/15 06:30:08;;;;;;;2.57;2.37;;;7.70;99.90;;;;;;4936915;29;20265;-72
2022/11/15 06:32:33;;;;;;;3.45;2.78;;;7.70;99.90;;;;;;4947025;29;20215;-72
2022/11/15 06:34:59;;;;;;;6.00;2.70;;;7.70;99.90;;;;;;4955108;29;20639;-72
2022/11/15 06:37:24;;;;;;;4.43;3.30;;;7.70;99.90;;;;;;4949654;29;20581;-72
2022/11/15 06:39:50;;;;;;;5.17;4.67;;;7.80;99.90;;;;;;4953568;28;20212;-70
2022/11/15 06:42:16;;;;;;;3.80;3.50;;;7.70;99.90;;;;;;4953594;29;20259;-74
2022/11/15 06:44:41;;;;;;;3.30;3.00;;;7.70;99.90;;;;;;4954636;29;20751;-74
2022/11/15 06:47:07;;;;;;;3.10;2.77;;;7.70;99.90;;;;;;4947808;28;20192;-74
2022/11/15 06:49:32;;;;;;;4.00;2.30;;;7.80;99.90;;;;;;4953555;29;20177;-74
2022/11/15 06:51:58;;;;;;;2.90;2.70;;;7.80;99.90;;;;;;4953683;29;20212;-73
2022/11/15 06:54:23;;;;;;;6.20;2.60;;;7.80;99.90;;;;;;4954072;29;20212;-72
2022/11/15 06:56:49;;;;;;;5.67;3.47;;;7.80;99.90;;;;;;4937905;29;20173;-74
2022/11/15 06:59:14;;;;;;;5.37;3.30;;;7.90;99.90;;;;;;4954930;29;20176;-74
2022/11/15 07:01:40;;;;;;;5.27;3.40;;;7.90;99.90;;;;;;4954564;29;20177;-72
2022/11/15 07:04:05;;;;;;;4.00;3.30;;;8.00;99.90;;;;;;4939331;29;20208;-74
2022/11/15 07:06:31;;;;;;;3.60;3.40;;;8.10;99.90;;;;;;4935828;29;20211;-73
2022/11/15 07:08:57;;;;;;;3.83;3.50;;;8.10;99.90;;;;;;4935730;29;20173;-77
2022/11/15 07:11:22;;;;;;;5.00;3.23;;;8.20;99.90;;;;;;4919207;29;20181;-73
2022/11/15 07:13:48;;;;;;;5.10;3.27;;;8.30;99.90;;;;;;4942903;29;20279;-73
2022/11/15 07:16:13;;;;;;;3.93;3.60;;;8.40;99.90;;;;;;4955029;29;20176;-73
2022/11/15 07:18:40;;;;;;;3.97;3.67;;;8.60;99.90;;;;;;4954775;29;20177;-69
2022/11/15 07:21:11;;;;;;;8.60;4.03;;;8.80;99.90;;;;;;4954961;29;20268;-72
2022/11/15 07:23:40;;;;;;;3.28;2.97;;;9.10;99.90;;;;;;4954440;29;20616;-72
2022/11/15 07:26:07;;;;;;;2.90;2.70;;;9.30;99.90;;;;;;4937651;29;20204;-73
2022/11/15 07:28:33;;;;;;;9.35;4.25;;;9.60;99.90;;;;;;4954514;29;20264;-72
2022/11/15 07:31:02;;;;;;;3.50;3.20;;;9.80;99.90;;;;;;4954859;29;20701;-73
2022/11/15 07:33:28;;;;;;;2.72;2.22;;;10.00;99.90;;;;;;4954377;29;20409;-73
2022/11/15 07:35:54;;;;;;;3.33;3.00;;;10.10;99.90;;;;;;4954890;29;20604;-72
2022/11/15 07:38:19;;;;;;;4.90;3.20;;;10.20;99.90;;;;;;4951257;29;20233;-73
2022/11/15 07:40:45;;;;;;;4.20;2.80;;;10.30;99.90;;;;;;4935423;29;20178;-72
2022/11/15 07:43:11;;;;;;;8.93;3.60;;;10.40;99.90;;;;;;4917948;29;20179;-70
2022/11/15 07:45:44;;;;;;;4.80;3.10;;;10.60;99.90;;;;;;4935524;29;20917;-69
2022/11/15 07:48:10;;;;;;;3.30;3.00;;;10.70;99.90;;;;;;4935447;29;20256;-69
2022/11/15 07:50:36;;;;;;;3.57;2.80;;;10.80;99.90;;;;;;4935623;29;20422;-70
2022/11/15 07:53:01;;;;;;;3.30;3.00;;;11.00;99.90;;;;;;4938183;29;20419;-70
2022/11/15 07:55:30;;;;;;;2.87;2.63;;;11.20;99.90;;;;;;4939008;29;20217;-70
2022/11/15 07:58:08;;;;;;;3.80;3.40;;;11.50;99.90;;;;;;4939144;29;20533;-69
2022/11/15 08:00:34;;;;;;;4.03;2.90;;;11.80;99.90;;;;;;4939048;29;20409;-71
2022/11/15 08:03:06;;;;;;;3.27;3.07;;;12.10;99.90;;;;;;4938531;29;20412;-71
2022/11/15 08:05:34;;;;;;;3.43;3.13;;;12.60;99.90;;;;;;4938673;29;20452;-72
2022/11/15 08:07:59;;;;;;;4.30;2.57;;;13.40;99.90;;;;;;4947757;29;20428;-71
2022/11/15 08:10:26;;;;;;;4.00;2.83;;;14.00;99.90;;;;;;4957903;29;20415;-72
2022/11/15 08:13:03;;;;;;;4.00;3.17;;;14.50;99.90;;;;;;4957596;29;20645;-71
2022/11/15 08:15:30;;;;;;;3.10;2.70;;;14.70;99.90;;;;;;4957709;29;20494;-72
2022/11/15 08:17:57;;;;;;;3.03;2.57;;;14.90;99.90;;;;;;4957410;29;20405;-71
2022/11/15 08:20:24;;;;;;;2.30;2.10;;;15.10;99.90;;;;;;4957831;29;20805;-70
2022/11/15 08:22:49;;;;;;;2.83;2.00;;;15.20;99.90;;;;;;4947313;29;20520;-71
2022/11/15 08:25:15;;;;;;;6.30;2.43;;;15.20;99.90;;;;;;4938620;29;20514;-71
2022/11/15 08:27:41;;;;;;;4.40;2.50;;;15.20;99.90;;;;;;4937993;29;20646;-71
2022/11/15 08:30:07;;;;;;;3.47;3.17;;;15.10;99.90;;;;;;4938426;29;20226;-72
2022/11/15 08:32:32;;;;;;;5.27;2.40;;;15.10;99.90;;;;;;4938340;29;20526;-69
2022/11/15 08:34:58;;;;;;;2.37;2.17;;;15.20;99.90;;;;;;4938348;29;20457;-71
2022/11/15 08:37:24;;;;;;;2.93;2.63;;;15.40;99.90;;;;;;4921250;29;20260;-72
2022/11/15 08:39:49;;;;;;;3.00;2.73;;;15.30;99.90;;;;;;4938389;29;20635;-73
2022/11/15 08:42:16;;;;;;;3.30;2.03;;;15.20;99.90;;;;;;4938199;29;20178;-72
2022/11/15 08:44:41;;;;;;;3.40;2.17;;;15.10;99.90;;;;;;4937792;29;20189;-70
2022/11/15 08:47:10;;;;;;;2.83;2.43;;;15.00;99.90;;;;;;4937844;29;20932;-71
2022/11/15 08:49:36;;;;;;;3.37;2.67;;;15.10;99.90;;;;;;4938899;29;20856;-65
2022/11/15 08:52:01;;;;;;;2.77;2.53;;;15.40;99.90;;;;;;4938339;29;20497;-72
2022/11/15 08:54:27;;;;;;;4.30;2.80;;;16.00;99.90;;;;;;4937593;29;20609;-73
2022/11/15 08:56:52;;;;;;;3.33;3.03;;;16.50;99.90;;;;;;4938193;29;20174;-78
2022/11/15 08:59:18;;;;;;;3.63;2.70;;;17.10;99.90;;;;;;4938143;29;20177;-78
2022/11/15 09:01:43;;;;;;;2.93;2.63;;;17.70;99.90;;;;;;4937948;29;20179;-75
2022/11/15 09:04:09;;;;;;;3.63;3.33;;;18.50;99.90;;;;;;4936035;29;20245;-72
2022/11/15 09:06:35;;;;;;;4.07;3.07;;;19.10;99.20;;;;;;4937801;29;20594;-74
2022/11/15 09:09:01;;;;;;;8.00;3.50;;;19.50;99.10;;;;;;4937903;29;20181;-72
2022/11/15 09:11:26;;;;;;;3.40;3.10;;;20.00;97.70;;;;;;4948674;29;20188;-72
2022/11/15 09:13:52;;;;;;;3.20;2.90;;;20.30;96.40;;;;;;4938460;29;20800;-68
2022/11/15 09:16:18;;;;;;;3.60;3.40;;;20.70;95.40;;;;;;4956756;29;20170;-71
2022/11/15 09:18:44;;;;;;;3.17;2.93;;;21.00;94.20;;;;;;4957285;29;20633;-70
2022/11/15 09:21:10;;;;;;;3.60;3.30;;;21.10;93.90;;;;;;4956944;29;20174;-71
2022/11/15 09:23:35;;;;;;;4.07;2.80;;;21.30;93.90;;;;;;4956360;29;20185;-72
2022/11/15 09:26:02;;;;;;;2.90;2.60;;;21.40;92.70;;;;;;4956516;29;20472;-71
2022/11/15 09:28:28;;;;;;;2.27;2.10;;;21.50;93.00;;;;;;4946437;29;20186;-71
2022/11/15 09:30:59;;;;;;;3.07;2.87;;;21.50;91.80;;;;;;4938173;29;20425;-67
2022/11/15 09:33:25;;;;;;;3.13;2.80;;;21.10;91.60;;;;;;4937006;29;20475;-71
2022/11/15 09:35:51;;;;;;;5.30;2.47;;;20.80;91.90;;;;;;4937345;29;20436;-71
2022/11/15 09:38:17;;;;;;;3.27;2.50;;;20.60;92.50;;;;;;4943005;29;20943;-71
2022/11/15 09:40:43;;;;;;;2.93;2.30;;;20.40;92.60;;;;;;4956282;29;20180;-70
2022/11/15 09:43:32;;;;;;;2.30;2.10;;;20.10;92.70;;;;;;4956083;29;20376;-70
2022/11/15 09:46:36;;;;;;;2.23;2.03;;;19.80;93.20;;;;;;4956193;29;20169;-70
2022/11/15 09:49:02;;;;;;;2.43;2.23;;;;;;;;;;4955844;29;20487;-70
2022/11/15 09:51:30;;;;;;;2.27;2.07;;;19.60;94.10;;;;;;4955038;29;20408;-71
2022/11/15 09:54:07;;;;;;;2.27;2.07;;;20.40;92.70;;;;;;4955132;29;20408;-70
2022/11/15 09:56:36;;;;;;;2.87;2.40;;;20.90;92.90;;;;;;4953187;29;20387;-71
2022/11/15 09:59:28;;;;;;;2.47;2.20;;;21.20;91.30;;;;;;4928951;29;20995;-70
2022/11/15 10:02:12;;;;;;;2.17;1.83;;;21.40;91.00;;;;;;4931518;29;20464;-71
2022/11/15 10:04:39;;;;;;;3.53;2.67;;;21.60;90.90;;;;;;4934133;29;20465;-71
2022/11/15 10:07:36;;;;;;;2.50;2.40;;;21.80;90.90;;;;;;4934735;29;20535;-70
2022/11/15 10:10:25;;;;;;;3.67;2.57;;;22.00;90.30;;;;;;4934689;29;20446;-70
2022/11/15 10:12:52;;;;;;;2.40;2.20;;;22.00;89.80;;;;;;4934259;29;20421;-70
2022/11/15 10:15:22;;;;;;;3.43;2.40;;;21.70;87.80;;;;;;4934039;29;20504;-69
2022/11/15 10:17:53;;;;;;;8.40;2.50;;;21.40;88.70;;;;;;4936367;29;20407;-68
2022/11/15 10:20:26;;;;;;;3.70;2.70;;;21.00;90.30;;;;;;4936562;29;20753;-68
2022/11/15 10:22:55;;;;;;;3.43;2.20;;;20.60;90.60;;;;;;4926863;29;20508;-68
2022/11/15 10:25:33;;;;;;;3.07;2.20;;;20.10;91.20;;;;;;4938265;29;20471;-68
2022/11/15 10:28:27;;;;;;;4.87;2.33;;;19.60;91.90;;;;;;4944065;29;20840;-69
2022/11/15 10:30:55;;;;;;;2.23;2.03;;;19.10;92.40;;;;;;4936327;29;20390;-69
2022/11/15 10:33:36;;;;;;;2.50;2.30;;;18.70;92.40;;;;;;4935794;29;20381;-69
2022/11/15 10:36:24;;;;;;;1.87;1.77;;;18.60;92.80;;;;;;4936480;29;20439;-68
2022/11/15 10:38:50;;;;;;;2.60;1.90;;;18.30;93.00;;;;;;4936347;29;20409;-69
2022/11/15 10:41:19;;;;;;;2.20;2.03;;;18.10;93.60;;;;;;4936146;29;20402;-69
2022/11/15 10:44:00;;;;;;;2.70;2.50;;;18.00;94.10;;;;;;4954467;29;20212;-69
2022/11/15 10:46:26;;;;;;;2.90;2.70;;;17.90;94.50;;;;;;4955578;29;20412;-69
2022/11/15 10:48:52;;;;;;;2.63;2.43;;;17.80;94.70;;;;;;4955331;29;20405;-69
2022/11/15 10:51:29;;;;;;;3.07;1.80;;;17.80;94.90;;;;;;4955516;29;20179;-69
2022/11/15 10:53:58;;;;;;;2.63;2.43;;;17.80;94.80;;;;;;4954832;29;20217;-69
2022/11/15 10:56:26;;;;;;;2.07;1.93;;;17.80;95.00;;;;;;4936246;29;20794;-69
2022/11/15 10:58:56;;;;;;;2.50;2.17;;;17.70;95.10;;;;;;4936127;29;20376;-69
2022/11/15 11:01:29;;;;;;;2.27;2.10;;;17.60;95.30;;;;;;4935923;29;20444;-69
2022/11/15 11:04:08;;;;;;;1.97;1.67;;;17.50;95.40;;;;;;4935128;29;20492;-69
2022/11/15 11:06:50;;;;;;;2.97;2.27;;;17.50;95.70;;;;;;4919352;29;20433;-69
2022/11/15 11:09:31;;;;;;;2.10;1.90;;;17.60;95.80;;;;;;4954531;29;20416;-69
2022/11/15 11:11:57;;;;;;;3.70;2.40;;;17.60;96.30;;;;;;4955067;29;20405;-69
2022/11/15 11:14:30;;;;;;;2.13;1.60;;;17.50;97.00;;;;;;4954402;29;20958;-69
2022/11/15 11:17:32;;;;;;;4.03;1.90;;;17.30;96.70;;;;;;4954960;29;20887;-68
2022/11/15 11:20:36;;;;;;;3.53;2.50;;;17.30;96.70;;;;;;4955207;29;20415;-69
2022/11/15 11:23:27;;;;;;;2.23;2.10;;;17.10;96.90;;;;;;4928562;29;20436;-69
2022/11/15 11:26:49;;;;;;;2.40;2.20;;;17.10;96.80;;;;;;4935948;29;20979;-68
2022/11/15 11:29:51;;;;;;;2.60;2.40;;;17.10;97.30;;;;;;4950582;29;20436;-69
2022/11/15 11:32:46;;;;;;;2.03;1.80;;;17.00;97.00;;;;;;4958963;29;20471;-69
2022/11/15 11:35:26;;;;;;;2.47;2.27;;;17.10;97.10;;;;;;4957833;29;20476;-69
2022/11/15 11:38:00;;;;;;;2.30;2.00;;;17.00;97.10;;;;;;4958781;29;20471;-69
2022/11/15 11:40:55;;;;;;;2.47;2.27;;;16.90;97.30;;;;;;4958747;29;20500;-69
2022/11/15 11:43:39;;;;;;;2.60;2.40;;;17.00;97.40;;;;;;4958109;29;20406;-69
2022/11/15 11:46:26;;;;;;;2.60;1.80;;;17.10;96.90;;;;;;4958883;29;20458;-69
2022/11/15 11:49:10;;;;;;;19.13;11.60;;;17.10;97.30;;;;;;4958045;29;20425;-69
2022/11/15 11:51:45;;;;;;;2.43;2.23;;;17.10;97.30;;;;;;4958022;29;20428;-69
2022/11/15 11:54:19;;;;;;;3.70;1.93;;;17.10;97.20;;;;;;4957745;29;20431;-70
2022/11/15 11:56:45;;;;;;;2.03;1.50;;;17.10;96.20;;;;;;4958311;28;20399;-70
2022/11/15 11:59:25;;;;;;;1.83;1.73;;;17.10;96.40;;;;;;4957901;29;20412;-69
2022/11/15 12:01:51;;;;;;;6.60;1.60;;;17.10;96.10;;;;;;4957639;29;20410;-70
2022/11/15 12:04:29;;;;;;;2.20;1.60;;;17.10;96.10;;;;;;4948929;29;20538;-70
2022/11/15 12:07:26;;;;;;;3.53;2.23;;;17.00;96.00;;;;;;4938763;29;20446;-69
2022/11/15 12:10:16;;;;;;;1.60;1.50;;;16.90;96.60;;;;;;4926095;29;20488;-69
2022/11/15 12:13:00;;;;;;;2.97;2.00;;;16.80;96.60;;;;;;4938387;29;20556;-69
2022/11/15 12:15:31;;;;;;;2.13;1.93;;;16.80;96.90;;;;;;4938718;29;21006;-70
2022/11/15 12:18:00;;;;;;;2.97;1.70;;;16.70;96.70;;;;;;4938734;29;20412;-68
2022/11/15 12:20:29;;;;;;;2.40;2.03;;;16.80;97.10;;;;;;4938720;29;20495;-66
2022/11/15 12:23:05;;;;;;;1.80;1.70;;;16.80;97.10;;;;;;4950495;29;20423;-69
2022/11/15 12:25:54;;;;;;;3.40;2.33;;;17.00;96.80;;;;;;4956953;29;20475;-68
2022/11/15 12:28:38;;;;;;;3.87;1.73;;;17.10;96.30;;;;;;4957364;29;20390;-68
2022/11/15 12:31:30;;;;;;;1.70;1.60;;;17.10;96.20;;;;;;4957537;29;20436;-69
2022/11/15 12:33:58;;;;;;;1.93;1.40;;;17.10;96.10;;;;;;4946888;29;20530;-68
2022/11/15 12:36:23;;;;;;;1.80;1.70;;;17.00;96.40;;;;;;4948356;29;20784;-69
2022/11/15 12:39:00;;;;;;;1.63;1.53;;;16.90;96.70;;;;;;4956913;28;20406;-69
2022/11/15 12:41:26;;;;;;;1.63;1.40;;;16.90;96.70;;;;;;4956508;29;20238;-70
2022/11/15 12:43:52;;;;;;;2.03;1.33;;;16.80;96.60;;;;;;4956871;29;20426;-70
2022/11/15 12:46:29;;;;;;;2.60;1.80;;;16.70;96.60;;;;;;4956962;29;20175;-69
2022/11/15 12:49:08;;;;;;;2.00;1.70;;;16.70;96.70;;;;;;4955936;29;20484;-69
2022/11/15 12:51:42;;;;;;;1.53;1.43;;;16.70;96.90;;;;;;4937792;29;20420;-70
2022/11/15 12:54:23;;;;;;;1.70;1.60;;;16.60;96.70;;;;;;4955314;29;20458;-70
2022/11/15 12:57:32;;;;;;;2.07;1.97;;;16.50;96.70;;;;;;4936406;29;20938;-70
2022/11/15 13:00:04;;;;;;;1.43;1.33;;;16.40;97.00;;;;;;4931165;29;20429;-71
2022/11/15 13:02:32;;;;;;;1.70;1.60;;;16.30;97.30;;;;;;4957084;29;20405;-72
2022/11/15 13:05:19;;;;;;;1.90;1.23;;;16.30;97.40;;;;;;4956698;29;20446;-70
2022/11/15 13:07:44;;;;;;;3.67;1.40;;;16.20;97.60;;;;;;4956466;29;20506;-73
2022/11/15 13:10:10;;;;;;;1.60;1.50;;;16.20;97.80;;;;;;4956236;29;20982;-71
2022/11/15 13:12:40;;;;;;;1.20;1.20;;;16.10;97.80;;;;;;4956777;29;20175;-71
2022/11/15 13:15:12;;;;;;;1.83;1.40;;;16.20;98.10;;;;;;4939580;29;20567;-71
2022/11/15 13:17:42;;;;;;;1.80;1.70;;;16.20;98.10;;;;;;4956700;29;20417;-72
2022/11/15 13:20:26;;;;;;;1.13;1.13;;;16.20;98.10;;;;;;4956754;29;20404;-71
2022/11/15 13:23:02;;;;;;;2.03;1.80;;;16.20;98.00;;;;;;4956619;29;20380;-71
2022/11/15 13:25:47;;;;;;;1.57;1.40;;;16.10;98.30;;;;;;4939043;29;20432;-72
2022/11/15 13:28:15;;;;;;;2.13;1.90;;;16.10;98.30;;;;;;4937613;29;20421;-73
2022/11/15 13:30:53;;;;;;;2.13;1.93;;;16.00;98.50;;;;;;4937570;29;20405;-71
2022/11/15 13:33:32;;;;;;;2.07;1.70;;;15.90;98.70;;;;;;4937149;29;20409;-72
2022/11/15 13:36:13;;;;;;;2.57;2.20;;;15.90;99.00;;;;;;4937458;29;20414;-72
2022/11/15 13:38:42;;;;;;;1.40;1.33;;;15.90;98.80;;;;;;4939415;29;20445;-71
2022/11/15 13:41:32;;;;;;;4.10;1.60;;;15.90;98.90;;;;;;4956444;29;20949;-72
2022/11/15 13:43:59;;;;;;;2.83;1.53;;;15.90;98.90;;;;;;4943854;29;20454;-71
2022/11/15 13:46:35;;;;;;;1.40;1.30;;;15.90;98.90;;;;;;4937235;29;20411;-73
2022/11/15 13:49:03;;;;;;;6.73;1.50;;;15.90;98.10;;;;;;4936749;29;20763;-71
2022/11/15 13:51:49;;;;;;;2.50;1.43;;;15.90;98.20;;;;;;4937154;29;20407;-72
2022/11/15 13:54:27;;;;;;;1.63;1.53;;;15.80;98.20;;;;;;4919423;29;20441;-73
2022/11/15 13:56:57;;;;;;;2.40;1.57;;;15.80;98.40;;;;;;4935313;29;20427;-71
2022/11/15 13:59:36;;;;;;;1.50;1.40;;;15.70;98.50;;;;;;4938172;29;20400;-73
2022/11/15 14:02:33;;;;;;;7.23;2.87;;;15.70;98.40;;;;;;4919654;29;20493;-70
2022/11/15 14:05:18;;;;;;;3.67;2.93;;;15.60;98.40;;;;;;4935768;29;20477;-73
2022/11/15 14:08:15;;;;;;;2.47;2.27;;;15.60;98.30;;;;;;4936814;29;20914;-71
2022/11/15 14:10:41;;;;;;;2.00;1.70;;;15.60;98.50;;;;;;4933107;29;20786;-71
2022/11/15 14:13:27;;;;;;;2.57;1.53;;;15.50;98.00;;;;;;4936141;29;20476;-70
2022/11/15 14:15:53;;;;;;;1.20;1.10;;;15.50;98.30;;;;;;4936927;29;20217;-71
2022/11/15 14:18:41;;;;;;;1.50;1.40;;;15.40;98.30;;;;;;4936612;29;20414;-70
2022/11/15 14:21:08;;;;;;;7.90;1.90;;;15.40;98.40;;;;;;4936625;29;20170;-72
2022/11/15 14:23:33;;;;;;;1.17;1.00;;;15.40;98.30;;;;;;4936210;29;20437;-77
2022/11/15 14:26:01;;;;;;;1.43;1.33;;;15.40;98.30;;;;;;4936203;29;20511;-71
2022/11/15 14:28:27;;;;;;;2.00;1.80;;;15.30;98.50;;;;;;4936331;29;20502;-72
2022/11/15 14:30:55;;;;;;;1.80;1.60;;;15.20;98.90;;;;;;4919370;29;20428;-72
2022/11/15 14:33:52;;;;;;;1.70;1.37;;;15.10;99.30;;;;;;4949443;29;20185;-72
2022/11/15 14:36:19;;;;;;;1.50;1.17;;;15.10;99.50;;;;;;4953424;29;20423;-71
2022/11/15 14:38:46;;;;;;;1.57;1.47;;;15.10;99.90;;;;;;4955129;29;20415;-70
2022/11/15 14:41:23;;;;;;;2.50;1.70;;;14.90;99.90;;;;;;4951032;29;20415;-70
2022/11/15 14:43:50;;;;;;;1.90;1.80;;;14.80;99.90;;;;;;4954774;29;20435;-70
2022/11/15 14:46:16;;;;;;;1.67;1.57;;;14.60;99.90;;;;;;4955340;29;20423;-70
2022/11/15 14:48:42;;;;;;;1.87;1.73;;;14.50;99.90;;;;;;4950764;29;20439;-69
2022/11/15 14:51:17;;;;;;;4.27;1.77;;;14.40;99.90;;;;;;4955671;29;20522;-69
2022/11/15 14:53:44;;;;;;;2.23;2.00;;;14.30;99.90;;;;;;4954805;29;20207;-68
2022/11/15 14:56:11;;;;;;;2.20;1.80;;;14.20;99.90;;;;;;4938046;29;20424;-71
2022/11/15 14:58:37;;;;;;;3.50;3.20;;;14.10;99.90;;;;;;4955178;29;20536;-70
2022/11/15 15:01:27;;;;;;;2.80;2.00;;;14.00;99.90;;;;;;4954422;29;20431;-70
2022/11/15 15:03:56;;;;;;;1.87;1.73;;;14.00;99.90;;;;;;4951689;29;20299;-68
2022/11/15 15:06:22;;;;;;;2.40;2.10;;;14.00;99.90;;;;;;4954929;29;20506;-71
2022/11/15 15:08:50;;;;;;;1.90;1.70;;;14.00;99.90;;;;;;4954763;29;20466;-70
2022/11/15 15:11:29;;;;;;;3.43;2.77;;;13.90;99.90;;;;;;4954913;29;20498;-69
2022/11/15 15:13:59;;;;;;;1.93;1.83;;;13.90;99.90;;;;;;4954234;29;20439;-69
2022/11/15 15:16:25;;;;;;;2.30;2.20;;;14.00;99.90;;;;;;4954954;29;20435;-69
2022/11/15 15:18:50;;;;;;;2.33;1.97;;;14.00;99.90;;;;;;4954884;29;20416;-69
2022/11/15 15:21:25;;;;;;;2.10;1.90;;;14.00;99.90;;;;;;4954928;29;20207;-71
2022/11/15 15:23:53;;;;;;;4.10;2.37;;;14.00;99.90;;;;;;4954485;28;20199;-69
2022/11/15 15:26:19;;;;;;;2.67;2.17;;;14.00;99.90;;;;;;4955010;29;20431;-69
2022/11/15 15:28:44;;;;;;;2.43;2.30;;;14.00;99.90;;;;;;4954156;29;20429;-69
2022/11/15 15:31:10;;;;;;;2.80;2.50;;;14.00;99.90;;;;;;4954267;29;20196;-68
2022/11/15 15:33:36;;;;;;;3.43;2.33;;;14.00;99.90;;;;;;4936316;29;20263;-69
2022/11/15 15:36:03;;;;;;;3.40;2.03;;;13.90;99.90;;;;;;4954739;29;20412;-69
2022/11/15 15:38:29;;;;;;;2.20;1.93;;;13.90;99.90;;;;;;4954973;29;20408;-68
2022/11/15 15:40:55;;;;;;;2.80;1.93;;;13.90;99.90;;;;;;4954549;29;20412;-69
2022/11/15 15:43:20;;;;;;;2.53;2.30;;;13.80;99.90;;;;;;4953747;29;20525;-69
2022/11/15 15:45:46;;;;;;;4.67;2.70;;;13.70;99.90;;;;;;4954495;29;20485;-68
2022/11/15 15:48:14;;;;;;;2.20;1.80;;;13.60;99.90;;;;;;4954581;29;20905;-70
2022/11/15 15:50:42;;;;;;;2.40;2.20;;;13.50;99.90;;;;;;4953516;29;20758;-72
2022/11/15 15:53:10;;;;;;;2.17;2.03;;;13.40;99.90;;;;;;4954079;29;20390;-71
2022/11/15 15:55:36;;;;;;;2.17;2.07;;;13.30;99.90;;;;;;4954397;29;20434;-72
2022/11/15 15:58:02;;;;;;;2.10;1.90;;;13.10;99.90;;;;;;4946037;29;20967;-71
2022/11/15 16:00:28;;;;;;;3.00;1.97;;;13.00;99.90;;;;;;4954463;29;20411;-70
2022/11/15 16:02:54;;;;;;;2.23;2.07;;;12.90;99.90;;;;;;4954160;29;20414;-71
2022/11/15 16:05:20;;;;;;;1.93;1.83;;;12.90;99.90;;;;;;4954069;29;20441;-69
2022/11/15 16:07:47;;;;;;;2.63;2.00;;;12.80;99.90;;;;;;4954495;29;20175;-71
2022/11/15 16:10:24;;;;;;;2.77;2.60;;;12.80;99.90;;;;;;4954286;29;20406;-68
2022/11/15 16:12:50;;;;;;;3.13;2.83;;;12.70;99.90;;;;;;4944629;28;20503;-72
2022/11/15 16:15:16;;;;;;;1.80;1.70;;;12.70;99.90;;;;;;4938755;29;20432;-71
2022/11/15 16:17:49;;;;;;;3.03;2.73;;;12.70;99.90;;;;;;4938680;29;20416;-74
2022/11/15 16:20:33;;;;;;;3.47;2.67;;;12.60;99.90;;;;;;4938834;29;20412;-72
2022/11/15 16:23:00;;;;;;;2.87;2.40;;;12.60;99.90;;;;;;4949073;29;20438;-70
2022/11/15 16:25:26;;;;;;;4.17;3.17;;;12.60;99.90;;;;;;4957565;29;20475;-70
2022/11/15 16:27:52;;;;;;;4.17;3.30;;;12.70;99.90;;;;;;4957898;29;20414;-71
2022/11/15 16:30:20;;;;;;;4.70;2.47;;;12.70;99.90;;;;;;4955654;29;20205;-70
2022/11/15 16:32:46;;;;;;;5.50;3.17;;;12.70;99.90;;;;;;4942891;29;20439;-71
2022/11/15 16:35:13;;;;;;;2.97;2.60;;;12.80;99.90;;;;;;4937609;29;20442;-70
2022/11/15 16:37:43;;;;;;;3.13;2.60;;;12.80;99.90;;;;;;4956823;29;20517;-73
2022/11/15 16:40:23;;;;;;;5.33;3.23;;;12.80;99.90;;;;;;4957350;29;20841;-71
2022/11/15 16:42:49;;;;;;;3.30;2.23;;;12.80;99.90;;;;;;4937952;29;20423;-71
2022/11/15 16:45:15;;;;;;;3.47;3.00;;;12.90;99.90;;;;;;4939961;29;21008;-72
2022/11/15 16:47:41;;;;;;;3.33;3.03;;;12.90;99.90;;;;;;4945813;28;20259;-70
2022/11/15 16:50:29;;;;;;;2.70;2.40;;;12.90;99.90;;;;;;4957341;29;20661;-73
2022/11/15 16:52:59;;;;;;;2.67;2.30;;;12.90;99.90;;;;;;4955884;29;20235;-72
2022/11/15 16:55:27;;;;;;;2.23;2.00;;;13.00;99.90;;;;;;4951689;28;20460;-72
2022/11/15 16:57:54;;;;;;;6.07;2.83;;;13.00;99.90;;;;;;4956488;29;20832;-72
2022/11/15 17:00:20;;;;;;;2.93;2.17;;;13.00;99.90;;;;;;4956471;29;20469;-72
2022/11/15 17:02:48;;;;;;;2.40;2.27;;;13.10;99.90;;;;;;4952175;29;20447;-72
2022/11/15 17:05:16;;;;;;;7.93;2.60;;;13.10;99.90;;;;;;4956482;29;20521;-73
2022/11/15 17:07:42;;;;;;;2.03;1.93;;;13.20;99.90;;;;;;4938973;29;20424;-70
2022/11/15 17:10:11;;;;;;;4.83;2.73;;;13.30;99.90;;;;;;4930252;29;20788;-71
2022/11/15 17:12:37;;;;;;;8.47;3.77;;;13.30;99.90;;;;;;4956172;29;20172;-72
2022/11/15 17:15:04;;;;;;;5.17;2.50;;;13.30;99.90;;;;;;4947893;29;20450;-69
2022/11/15 17:17:30;;;;;;;5.30;2.37;;;13.40;99.90;;;;;;4937823;29;20412;-73
2022/11/15 17:19:56;;;;;;;3.00;2.80;;;13.40;99.90;;;;;;4942407;29;20511;-70
2022/11/15 17:22:23;;;;;;;4.50;3.60;;;13.40;99.90;;;;;;4941027;29;20498;-71
2022/11/15 17:24:48;;;;;;;2.73;2.53;;;13.40;99.90;;;;;;4940093;29;20508;-72
2022/11/15 17:27:14;;;;;;;2.90;2.53;;;13.40;99.90;;;;;;4937566;29;20828;-72
2022/11/15 17:29:40;;;;;;;2.40;2.20;;;13.40;99.90;;;;;;4950531;29;20180;-71
2022/11/15 17:32:07;;;;;;;3.10;2.70;;;13.30;99.90;;;;;;4956920;29;20253;-70
2022/11/15 17:34:32;;;;;;;5.33;1.97;;;13.30;99.90;;;;;;4953254;29;20444;-72
2022/11/15 17:36:58;;;;;;;7.03;2.93;;;13.30;99.90;;;;;;4956349;29;20411;-70
2022/11/15 17:39:24;;;;;;;2.60;2.40;;;13.40;99.90;;;;;;4945004;29;20177;-71
2022/11/15 17:41:49;;;;;;;3.70;2.20;;;13.40;99.90;;;;;;4937352;29;20188;-71
2022/11/15 17:44:15;;;;;;;3.67;3.47;;;13.40;99.90;;;;;;4940409;29;20652;-72
2022/11/15 17:46:41;;;;;;;3.90;2.63;;;13.30;99.90;;;;;;4950084;29;20180;-71
2022/11/15 17:49:07;;;;;;;3.50;2.60;;;13.40;99.90;;;;;;4955368;29;20174;-71
2022/11/15 17:51:32;;;;;;;2.43;2.20;;;13.40;99.90;;;;;;4956320;29;20412;-69
2022/11/15 17:53:58;;;;;;;2.67;2.47;;;13.40;99.90;;;;;;4931527;29;20192;-69
2022/11/15 17:56:27;;;;;;;3.57;3.27;;;13.40;99.90;;;;;;4936890;29;20427;-71
2022/11/15 17:58:54;;;;;;;3.10;2.77;;;13.40;99.90;;;;;;4941849;29;20235;-69
2022/11/15 18:01:32;;;;;;;3.50;2.53;;;13.30;99.90;;;;;;4955680;29;20424;-70
2022/11/15 18:03:59;;;;;;;2.90;2.60;;;13.40;99.90;;;;;;4948873;29;20826;-69
2022/11/15 18:06:27;;;;;;;4.07;3.20;;;13.40;99.90;;;;;;4936625;29;20856;-68
2022/11/15 18:08:56;;;;;;;3.50;2.67;;;13.30;99.90;;;;;;4943943;29;20518;-68
2022/11/15 18:11:27;;;;;;;2.80;2.50;;;13.30;99.90;;;;;;4940599;29;20436;-71